Time;durP1;ratioP1;P1;durP2;ratioP2;P2;SDS_P1;SDS_P2;PMS_P1;PMS_P2;Temp;Humidity;BMP_temperature;BMP_pressure;BME280_temperature;BME280_humidity;BME280_pressure;Samples;Min_cycle;Max_cycle;Signal;HPM_P1;HPM_P2
2024/04/17 00:01:01;;;;;;;51.97;33.67;;;5.90;99.90;;;;;;5388538;26;20023;-80
2024/04/17 00:03:28;;;;;;;48.38;33.83;;;5.90;99.90;;;;;;5388315;26;20008;-80
2024/04/17 00:05:55;;;;;;;55.17;34.58;;;5.90;99.90;;;;;;5364811;26;20007;-83
2024/04/17 00:08:22;;;;;;;52.70;35.13;;;5.90;99.90;;;;;;5385907;26;19998;-79
2024/04/17 00:10:50;;;;;;;48.30;33.75;;;5.90;99.90;;;;;;5347895;26;20504;-82
2024/04/17 00:13:18;;;;;;;50.10;33.10;;;5.80;99.90;;;;;;5318792;26;20019;-81
2024/04/17 00:15:45;;;;;;;54.05;35.17;;;5.80;99.90;;;;;;5376364;26;20424;-79
2024/04/17 00:18:13;;;;;;;53.30;36.58;;;5.80;99.90;;;;;;5385345;26;20000;-80
2024/04/17 00:20:40;;;;;;;58.67;36.60;;;5.80;99.90;;;;;;5365351;26;20754;-79
2024/04/17 00:23:07;;;;;;;54.47;33.67;;;5.80;99.90;;;;;;5381979;26;20012;-78
2024/04/17 00:25:34;;;;;;;51.28;34.58;;;5.80;99.90;;;;;;5343818;26;20003;-78
2024/04/17 00:28:01;;;;;;;48.30;33.83;;;5.80;99.90;;;;;;5323782;26;20019;-79
2024/04/17 00:30:28;;;;;;;42.28;32.30;;;5.80;99.90;;;;;;5349700;26;20023;-79
2024/04/17 00:32:55;;;;;;;47.63;34.40;;;5.80;99.90;;;;;;5360505;26;20011;-80
2024/04/17 00:35:22;;;;;;;58.22;35.88;;;5.90;99.90;;;;;;5373279;26;20572;-78
2024/04/17 00:37:49;;;;;;;49.67;33.53;;;5.80;99.90;;;;;;5386370;26;20613;-78
2024/04/17 00:40:17;;;;;;;48.92;33.05;;;5.80;99.90;;;;;;5376226;26;20008;-78
2024/04/17 00:42:44;;;;;;;57.13;32.92;;;5.70;99.90;;;;;;5384695;26;20011;-77
2024/04/17 00:45:12;;;;;;;44.65;31.40;;;5.70;99.90;;;;;;5384427;26;20019;-81
2024/04/17 00:47:41;;;;;;;45.72;30.40;;;5.60;99.90;;;;;;5395623;26;20051;-79
2024/04/17 00:50:10;;;;;;;46.90;29.40;;;5.50;99.90;;;;;;5358947;26;20104;-78
2024/04/17 00:52:39;;;;;;;47.33;29.65;;;5.40;99.90;;;;;;5384142;26;20062;-79
2024/04/17 00:55:07;;;;;;;42.63;26.35;;;5.30;99.90;;;;;;5384946;26;19999;-77
2024/04/17 00:57:36;;;;;;;44.47;28.10;;;5.30;99.90;;;;;;5354247;26;20469;-77
2024/04/17 01:00:05;;;;;;;44.90;26.60;;;5.20;99.90;;;;;;5386443;26;20031;-77
2024/04/17 01:02:32;;;;;;;47.97;25.90;;;5.20;99.90;;;;;;5347521;26;20362;-78
2024/04/17 01:05:25;;;;;;;38.20;25.48;;;5.30;99.90;;;;;;5347945;26;20036;-78
2024/04/17 01:07:54;;;;;;;41.47;24.80;;;5.20;99.90;;;;;;5352137;26;20015;-77
2024/04/17 01:10:21;;;;;;;45.22;24.00;;;5.20;99.90;;;;;;5328113;26;20011;-77
2024/04/17 01:12:48;;;;;;;42.15;23.58;;;5.20;99.90;;;;;;5405143;26;20556;-78
2024/04/17 01:15:27;;;;;;;37.75;23.58;;;5.10;99.90;;;;;;5342618;26;22035;-77
2024/04/17 01:17:57;;;;;;;50.50;26.27;;;5.10;99.90;;;;;;5331111;26;20447;-77
2024/04/17 01:20:25;;;;;;;43.67;25.70;;;5.00;99.90;;;;;;5352862;26;20622;-77
2024/04/17 01:22:52;;;;;;;37.17;23.35;;;5.00;99.90;;;;;;5361937;26;20074;-76
2024/04/17 01:25:19;;;;;;;38.70;23.25;;;5.00;99.90;;;;;;5320696;26;20003;-77
2024/04/17 01:27:46;;;;;;;39.42;23.98;;;4.90;99.90;;;;;;5413383;26;20800;-77
2024/04/17 01:30:13;;;;;;;38.78;23.95;;;4.90;99.90;;;;;;5410630;26;20012;-77
2024/04/17 01:32:42;;;;;;;51.40;26.05;;;4.90;99.90;;;;;;5443697;26;20003;-77
2024/04/17 01:35:09;;;;;;;50.30;30.63;;;4.80;99.90;;;;;;5348062;26;20567;-77
2024/04/17 01:37:37;;;;;;;56.05;30.65;;;4.90;99.90;;;;;;5339989;26;20525;-77
2024/04/17 01:40:04;;;;;;;53.58;32.15;;;4.90;99.90;;;;;;5350318;26;20008;-77
2024/04/17 01:42:31;;;;;;;48.97;29.15;;;5.00;99.90;;;;;;5346675;26;20014;-76
2024/04/17 01:44:58;;;;;;;45.47;28.63;;;5.00;99.90;;;;;;5355366;26;20022;-77
2024/04/17 01:47:26;;;;;;;43.55;26.85;;;5.00;99.90;;;;;;5340295;26;20236;-77
2024/04/17 01:49:53;;;;;;;45.95;26.67;;;5.10;99.90;;;;;;5355129;26;20382;-76
2024/04/17 01:52:21;;;;;;;43.95;24.90;;;5.00;99.90;;;;;;5344881;26;20016;-79
2024/04/17 01:54:48;;;;;;;44.65;26.58;;;5.10;99.90;;;;;;5358612;26;20229;-77
2024/04/17 01:57:15;;;;;;;40.85;24.60;;;5.10;99.90;;;;;;5349488;26;20008;-77
2024/04/17 01:59:43;;;;;;;41.75;23.73;;;5.10;99.90;;;;;;5314824;26;20005;-76
2024/04/17 02:02:10;;;;;;;43.97;25.50;;;5.10;99.90;;;;;;5350068;26;20478;-76
2024/04/17 02:04:37;;;;;;;37.95;25.95;;;5.10;99.90;;;;;;5392871;26;20978;-77
2024/04/17 02:07:04;;;;;;;47.83;26.17;;;5.00;99.90;;;;;;5387185;26;20007;-76
2024/04/17 02:09:31;;;;;;;47.47;25.63;;;5.00;99.90;;;;;;5375480;26;20011;-77
2024/04/17 02:12:00;;;;;;;49.78;27.45;;;5.00;99.90;;;;;;5330215;26;20000;-76
2024/04/17 02:14:28;;;;;;;46.60;26.10;;;5.00;99.90;;;;;;5345636;26;19997;-77
2024/04/17 02:16:54;;;;;;;41.30;23.73;;;5.00;99.90;;;;;;5343958;26;20052;-76
2024/04/17 02:19:23;;;;;;;44.38;24.13;;;4.90;99.90;;;;;;5343033;26;20397;-78
2024/04/17 02:21:50;;;;;;;42.58;25.67;;;4.80;99.90;;;;;;5375299;26;20068;-76
2024/04/17 02:24:17;;;;;;;37.00;23.50;;;4.80;99.90;;;;;;5329268;26;20004;-76
2024/04/17 02:26:45;;;;;;;34.72;23.70;;;4.80;99.90;;;;;;5372052;26;20001;-75
2024/04/17 02:29:11;;;;;;;44.75;22.05;;;4.80;99.90;;;;;;5390381;26;20004;-76
2024/04/17 02:31:38;;;;;;;31.55;21.65;;;4.70;99.90;;;;;;5352123;26;20000;-76
2024/04/17 02:34:05;;;;;;;31.50;20.75;;;4.70;99.90;;;;;;5367907;26;20011;-74
2024/04/17 02:36:32;;;;;;;37.33;21.50;;;4.60;99.90;;;;;;5358861;26;20007;-76
2024/04/17 02:38:59;;;;;;;37.70;21.15;;;4.60;99.90;;;;;;5385528;26;20004;-76
2024/04/17 02:41:27;;;;;;;38.65;22.77;;;4.60;99.90;;;;;;5354196;26;20004;-75
2024/04/17 02:43:54;;;;;;;36.58;23.15;;;4.60;99.90;;;;;;5393334;26;20003;-76
2024/04/17 02:46:21;;;;;;;37.33;23.58;;;4.50;99.90;;;;;;5393471;26;20032;-76
2024/04/17 02:48:49;;;;;;;43.42;22.52;;;4.50;99.90;;;;;;5350563;26;20551;-76
2024/04/17 02:51:15;;;;;;;36.03;22.67;;;4.50;99.90;;;;;;5366984;26;20455;-76
2024/04/17 02:53:43;;;;;;;37.28;23.45;;;4.50;99.90;;;;;;5392424;26;22424;-75
2024/04/17 02:56:35;;;;;;;40.70;24.20;;;4.50;99.90;;;;;;5356325;26;20035;-76
2024/04/17 02:59:05;;;;;;;39.17;25.17;;;4.40;99.90;;;;;;5379141;26;20701;-75
2024/04/17 03:01:32;;;;;;;36.28;23.45;;;4.50;99.90;;;;;;5362934;26;20073;-76
2024/04/17 03:03:59;;;;;;;40.05;23.42;;;4.50;99.90;;;;;;5355675;26;20043;-76
2024/04/17 03:06:27;;;;;;;41.38;23.27;;;4.50;99.90;;;;;;5383280;26;20043;-75
2024/04/17 03:08:54;;;;;;;38.72;22.63;;;4.50;99.90;;;;;;5386937;26;20703;-76
2024/04/17 03:11:21;;;;;;;39.05;22.88;;;4.40;99.90;;;;;;5385911;26;19996;-76
2024/04/17 03:13:51;;;;;;;43.08;24.65;;;4.40;99.90;;;;;;5362278;26;20070;-76
2024/04/17 03:16:18;;;;;;;35.67;22.58;;;4.40;99.90;;;;;;5389604;26;20044;-76
2024/04/17 03:18:45;;;;;;;38.42;23.55;;;4.50;99.90;;;;;;5416972;26;20717;-75
2024/04/17 03:21:12;;;;;;;41.67;24.05;;;4.50;99.90;;;;;;5389400;26;20018;-75
2024/04/17 03:23:39;;;;;;;38.03;23.60;;;4.50;99.90;;;;;;5387668;26;20010;-75
2024/04/17 03:26:06;;;;;;;44.97;24.23;;;4.50;99.90;;;;;;5397421;26;20003;-76
2024/04/17 03:28:33;;;;;;;32.20;24.77;;;4.40;99.90;;;;;;5352813;26;20022;-76
2024/04/17 03:31:01;;;;;;;41.90;22.13;;;4.30;99.90;;;;;;5388848;26;20053;-75
2024/04/17 03:33:28;;;;;;;45.20;24.13;;;4.30;99.90;;;;;;5387864;26;20000;-75
2024/04/17 03:35:57;;;;;;;43.45;23.75;;;4.40;99.90;;;;;;5423900;26;20052;-76
2024/04/17 03:38:25;;;;;;;38.28;21.55;;;4.30;99.90;;;;;;5352893;26;20011;-76
2024/04/17 03:40:54;;;;;;;47.03;22.40;;;4.40;99.90;;;;;;5407924;26;20019;-75
2024/04/17 03:43:22;;;;;;;39.22;19.50;;;4.40;99.90;;;;;;5330416;26;20017;-76
2024/04/17 03:45:49;;;;;;;34.20;20.35;;;4.30;99.90;;;;;;5381877;26;21259;-75
2024/04/17 03:48:17;;;;;;;31.27;21.38;;;4.30;99.90;;;;;;5395350;26;20004;-75
2024/04/17 03:50:44;;;;;;;36.65;21.10;;;4.40;99.90;;;;;;5379153;26;20023;-76
2024/04/17 03:53:11;;;;;;;48.45;24.77;;;4.40;99.90;;;;;;5389049;26;19995;-76
2024/04/17 03:55:38;;;;;;;35.30;22.58;;;4.40;99.90;;;;;;5390615;26;20744;-76
2024/04/17 03:58:05;;;;;;;38.15;21.92;;;4.40;99.90;;;;;;5387651;26;20026;-76
2024/04/17 04:00:34;;;;;;;36.70;23.58;;;4.40;99.90;;;;;;5361877;26;20014;-77
2024/04/17 04:03:01;;;;;;;32.85;22.58;;;4.50;99.90;;;;;;5384322;26;20016;-77
2024/04/17 04:05:29;;;;;;;40.30;23.40;;;4.40;99.90;;;;;;5384488;26;20088;-76
2024/04/17 04:07:56;;;;;;;35.28;20.85;;;4.30;99.90;;;;;;5367346;26;19998;-76
2024/04/17 04:10:24;;;;;;;34.28;22.20;;;4.30;99.90;;;;;;5331674;26;20004;-75
2024/04/17 04:12:51;;;;;;;35.40;21.38;;;4.20;99.90;;;;;;5363811;26;20014;-77
2024/04/17 04:15:18;;;;;;;36.70;22.83;;;4.10;99.90;;;;;;5398532;26;20012;-75
2024/04/17 04:17:45;;;;;;;44.40;21.75;;;4.10;99.90;;;;;;5393134;26;20045;-76
2024/04/17 04:20:13;;;;;;;34.17;23.13;;;4.10;99.90;;;;;;5372468;26;20619;-76
2024/04/17 04:22:40;;;;;;;35.75;22.10;;;4.10;99.90;;;;;;5389013;26;20061;-76
2024/04/17 04:25:07;;;;;;;39.25;21.98;;;4.10;99.90;;;;;;5387379;26;20000;-76
2024/04/17 04:27:34;;;;;;;44.08;22.60;;;4.10;99.90;;;;;;5384739;26;20000;-76
2024/04/17 04:30:02;;;;;;;38.75;24.42;;;4.10;99.90;;;;;;5384414;26;19994;-76
2024/04/17 04:32:29;;;;;;;45.50;23.55;;;4.10;99.90;;;;;;5382408;26;20395;-76
2024/04/17 04:34:57;;;;;;;35.88;23.95;;;4.10;99.90;;;;;;5388764;26;19999;-76
2024/04/17 04:37:25;;;;;;;33.92;23.98;;;4.10;99.90;;;;;;5380054;26;20337;-75
2024/04/17 04:39:53;;;;;;;42.67;24.05;;;4.10;99.90;;;;;;5349200;26;20726;-76
2024/04/17 04:42:20;;;;;;;43.05;26.02;;;4.10;99.90;;;;;;5357135;26;20869;-75
2024/04/17 04:44:46;;;;;;;44.65;26.45;;;4.10;99.90;;;;;;5375349;26;20003;-76
2024/04/17 04:47:14;;;;;;;44.35;24.83;;;4.10;99.90;;;;;;5391232;26;20010;-76
2024/04/17 04:49:41;;;;;;;41.72;25.90;;;4.10;99.90;;;;;;5383351;26;20057;-77
2024/04/17 04:52:08;;;;;;;52.00;24.23;;;4.20;99.90;;;;;;5359049;26;20906;-76
2024/04/17 04:54:36;;;;;;;39.83;24.00;;;4.10;99.90;;;;;;5386528;26;20554;-76
2024/04/17 04:57:03;;;;;;;44.38;24.25;;;4.00;99.90;;;;;;5363617;26;19999;-75
2024/04/17 04:59:31;;;;;;;41.53;24.77;;;4.00;99.90;;;;;;5390453;26;19998;-75
2024/04/17 05:01:58;;;;;;;49.72;25.98;;;3.90;99.90;;;;;;5389296;26;20009;-76
2024/04/17 05:04:27;;;;;;;51.35;26.45;;;4.00;99.90;;;;;;5385613;26;20003;-75
2024/04/17 05:06:55;;;;;;;52.30;27.45;;;4.10;99.90;;;;;;5381020;26;20439;-75
2024/04/17 05:09:22;;;;;;;53.65;25.95;;;4.10;99.90;;;;;;5398392;26;20010;-76
2024/04/17 05:11:49;;;;;;;49.85;26.05;;;4.10;99.90;;;;;;5387023;26;20015;-76
2024/04/17 05:14:16;;;;;;;44.22;25.60;;;4.00;99.90;;;;;;5357400;26;20077;-75
2024/04/17 05:16:44;;;;;;;60.22;28.60;;;4.00;99.90;;;;;;5374731;26;20007;-75
2024/04/17 05:19:11;;;;;;;59.25;26.35;;;4.00;99.90;;;;;;5390286;26;20053;-76
2024/04/17 05:21:38;;;;;;;47.75;29.35;;;3.90;99.90;;;;;;5384664;26;20015;-76
2024/04/17 05:24:05;;;;;;;54.25;29.48;;;4.00;99.90;;;;;;5395244;26;20517;-76
2024/04/17 05:26:35;;;;;;;48.38;28.42;;;4.00;99.90;;;;;;5386716;26;20007;-75
2024/04/17 05:29:02;;;;;;;60.58;28.38;;;4.00;99.90;;;;;;5356666;26;20007;-77
2024/04/17 05:31:30;;;;;;;47.75;27.88;;;4.00;99.90;;;;;;5389591;26;20360;-77
2024/04/17 05:33:57;;;;;;;51.80;27.52;;;3.90;99.90;;;;;;5385364;26;20497;-75
2024/04/17 05:36:24;;;;;;;45.40;26.63;;;3.90;99.90;;;;;;5350751;26;20056;-75
2024/04/17 05:38:52;;;;;;;58.58;28.50;;;4.00;99.90;;;;;;5353239;26;20018;-77
2024/04/17 05:41:19;;;;;;;50.80;28.30;;;4.00;99.90;;;;;;5389393;26;20000;-77
2024/04/17 05:43:46;;;;;;;43.70;29.13;;;4.00;99.90;;;;;;5354983;26;20007;-75
2024/04/17 05:46:13;;;;;;;54.67;27.80;;;4.00;99.90;;;;;;5386716;26;20066;-77
2024/04/17 05:48:41;;;;;;;55.75;29.30;;;4.00;99.90;;;;;;5346510;26;20076;-76
2024/04/17 05:51:07;;;;;;;68.03;29.83;;;3.90;99.90;;;;;;5388768;26;20007;-77
2024/04/17 05:53:35;;;;;;;62.78;28.90;;;3.90;99.90;;;;;;5386763;26;20018;-75
2024/04/17 05:56:03;;;;;;;67.38;29.85;;;3.80;99.90;;;;;;5384537;26;20427;-74
2024/04/17 05:58:30;;;;;;;63.58;31.73;;;3.80;99.90;;;;;;5376094;26;20000;-77
2024/04/17 06:00:57;;;;;;;50.42;30.00;;;3.90;99.90;;;;;;5363813;26;20178;-77
2024/04/17 06:03:24;;;;;;;57.58;31.08;;;3.80;99.90;;;;;;5351679;26;20077;-75
2024/04/17 06:05:51;;;;;;;65.22;32.55;;;3.90;99.90;;;;;;5343682;26;20525;-76
2024/04/17 06:08:18;;;;;;;66.22;33.35;;;3.80;99.90;;;;;;5345836;26;20004;-75
2024/04/17 06:10:45;;;;;;;68.57;34.55;;;3.90;99.90;;;;;;5313424;26;20040;-75
2024/04/17 06:13:12;;;;;;;82.57;34.10;;;3.90;99.90;;;;;;5344451;26;20107;-77
2024/04/17 06:15:39;;;;;;;63.03;34.15;;;3.90;99.90;;;;;;5318386;26;20138;-75
2024/04/17 06:18:07;;;;;;;63.53;32.22;;;3.90;99.90;;;;;;5354971;26;20000;-75
2024/04/17 06:20:34;;;;;;;74.90;34.05;;;3.90;99.90;;;;;;5353281;26;19996;-74
2024/04/17 06:23:03;;;;;;;64.50;34.15;;;4.00;99.90;;;;;;5339368;26;21302;-74
2024/04/17 06:25:31;;;;;;;81.10;36.47;;;4.00;99.90;;;;;;5348640;26;20663;-74
2024/04/17 06:27:58;;;;;;;80.20;36.28;;;4.10;99.90;;;;;;5340573;26;20023;-75
2024/04/17 06:30:25;;;;;;;68.38;34.47;;;4.20;99.90;;;;;;5358515;26;21107;-75
2024/04/17 06:32:52;;;;;;;71.28;32.85;;;4.10;99.90;;;;;;5359156;26;20217;-76
2024/04/17 06:35:19;;;;;;;71.68;35.42;;;4.10;99.90;;;;;;5393133;26;20337;-74
2024/04/17 06:37:46;;;;;;;77.35;34.20;;;4.20;99.90;;;;;;5375522;26;20027;-75
2024/04/17 06:40:14;;;;;;;70.93;35.80;;;4.20;99.90;;;;;;5355399;26;20051;-73
2024/04/17 06:42:41;;;;;;;67.35;34.95;;;4.40;99.90;;;;;;5381000;26;20004;-74
2024/04/17 06:45:08;;;;;;;108.30;40.17;;;4.50;99.90;;;;;;5449168;26;19995;-75
2024/04/17 06:47:35;;;;;;;91.13;35.08;;;4.50;99.90;;;;;;5387671;26;20194;-75
2024/04/17 06:50:02;;;;;;;74.35;33.80;;;4.40;99.90;;;;;;5342545;26;20479;-74
2024/04/17 06:52:30;;;;;;;76.55;35.65;;;4.30;99.90;;;;;;5353475;26;20735;-75
2024/04/17 06:54:57;;;;;;;80.93;35.47;;;4.30;99.90;;;;;;5390515;26;20055;-73
2024/04/17 06:57:24;;;;;;;65.30;30.90;;;4.30;99.90;;;;;;5364871;26;20034;-75
2024/04/17 06:59:51;;;;;;;103.90;35.78;;;4.30;99.90;;;;;;5400008;26;20007;-76
2024/04/17 07:02:18;;;;;;;91.53;36.20;;;4.30;99.90;;;;;;5385793;26;20186;-75
2024/04/17 07:04:46;;;;;;;80.88;36.03;;;4.30;99.90;;;;;;5386751;26;20871;-74
2024/04/17 07:07:13;;;;;;;73.13;35.50;;;4.40;99.90;;;;;;5392240;26;19998;-74
2024/04/17 07:09:40;;;;;;;85.38;37.53;;;4.50;99.90;;;;;;5377321;26;20057;-74
2024/04/17 07:12:09;;;;;;;86.90;36.00;;;4.50;99.90;;;;;;5376493;26;20008;-75
2024/04/17 07:14:36;;;;;;;74.47;34.83;;;4.60;99.90;;;;;;5360469;26;20126;-75
2024/04/17 07:17:03;;;;;;;67.40;34.65;;;4.50;99.90;;;;;;5385039;26;20471;-74
2024/04/17 07:19:30;;;;;;;71.85;34.55;;;4.50;99.90;;;;;;5387449;26;20353;-75
2024/04/17 07:21:57;;;;;;;66.13;34.25;;;4.60;99.90;;;;;;5356866;26;20012;-74
2024/04/17 07:24:24;;;;;;;75.15;32.65;;;4.60;99.90;;;;;;5357324;26;20003;-73
2024/04/17 07:26:55;;;;;;;65.18;30.77;;;4.60;99.90;;;;;;5373172;26;20039;-74
2024/04/17 07:29:22;;;;;;;59.08;31.75;;;4.60;99.90;;;;;;5349374;26;20003;-73
2024/04/17 07:31:50;;;;;;;55.90;28.73;;;4.60;99.90;;;;;;5374322;26;20003;-74
2024/04/17 07:34:17;;;;;;;55.83;30.05;;;4.60;99.90;;;;;;5386500;26;20072;-73
2024/04/17 07:36:46;;;;;;;59.35;30.90;;;4.80;99.90;;;;;;5380050;26;20004;-74
2024/04/17 07:39:13;;;;;;;52.22;28.80;;;4.90;99.90;;;;;;5353886;26;20607;-75
2024/04/17 07:41:40;;;;;;;52.22;27.50;;;5.00;99.90;;;;;;5386637;26;20047;-74
2024/04/17 07:44:09;;;;;;;53.97;26.75;;;5.30;99.90;;;;;;5383192;26;21163;-74
2024/04/17 07:46:36;;;;;;;41.17;22.75;;;5.50;99.90;;;;;;5417264;26;19996;-75
2024/04/17 07:49:03;;;;;;;46.25;23.10;;;5.70;99.90;;;;;;5380934;26;20122;-73
2024/04/17 07:51:30;;;;;;;40.55;22.95;;;5.60;99.90;;;;;;5377314;26;20018;-74
2024/04/17 07:53:57;;;;;;;43.03;24.65;;;5.50;99.90;;;;;;5396423;26;20015;-74
2024/04/17 07:56:24;;;;;;;48.72;23.73;;;5.40;99.90;;;;;;5410133;26;20022;-74
2024/04/17 07:58:51;;;;;;;43.55;24.58;;;5.50;99.90;;;;;;5374068;26;20011;-74
2024/04/17 08:01:19;;;;;;;38.97;23.23;;;5.60;99.90;;;;;;5386455;26;20661;-74
2024/04/17 08:03:46;;;;;;;35.53;21.48;;;5.80;99.90;;;;;;5385168;26;20528;-75
2024/04/17 08:06:13;;;;;;;30.33;21.65;;;5.80;99.90;;;;;;5375302;26;20004;-74
2024/04/17 08:08:41;;;;;;;41.78;25.33;;;5.80;99.90;;;;;;5386639;26;20007;-74
2024/04/17 08:11:08;;;;;;;30.45;24.05;;;5.80;99.90;;;;;;5378912;26;20019;-74
2024/04/17 08:13:37;;;;;;;35.70;23.92;;;5.70;99.90;;;;;;5382602;26;20032;-74
2024/04/17 08:16:04;;;;;;;31.75;23.10;;;5.80;99.90;;;;;;5375028;26;21872;-74
2024/04/17 08:18:31;;;;;;;36.60;23.65;;;5.90;99.90;;;;;;5384294;26;20004;-74
2024/04/17 08:20:59;;;;;;;30.27;21.05;;;5.80;99.90;;;;;;5383114;26;20011;-74
2024/04/17 08:23:27;;;;;;;34.50;23.15;;;5.80;99.90;;;;;;5354685;26;20004;-74
2024/04/17 08:26:00;;;;;;;33.80;22.65;;;5.90;99.90;;;;;;5357819;26;20010;-74
2024/04/17 08:28:28;;;;;;;37.47;24.08;;;5.90;99.90;;;;;;5385107;26;20396;-74
2024/04/17 08:30:55;;;;;;;34.20;22.05;;;6.30;99.90;;;;;;5348970;26;20029;-75
2024/04/17 08:33:22;;;;;;;29.92;23.17;;;6.60;99.90;;;;;;5346957;26;20019;-73
2024/04/17 08:35:51;;;;;;;32.33;26.70;;;6.80;99.90;;;;;;5349957;26;20020;-74
2024/04/17 08:38:18;;;;;;;28.20;25.58;;;6.80;99.90;;;;;;5306667;26;20086;-73
2024/04/17 08:40:45;;;;;;;30.70;27.45;;;6.70;99.90;;;;;;5349689;26;20546;-74
2024/04/17 08:43:26;;;;;;;29.20;26.38;;;6.90;99.90;;;;;;5319913;26;20226;-75
2024/04/17 08:45:55;;;;;;;29.02;26.25;;;7.00;99.90;;;;;;5347094;26;20019;-74
2024/04/17 08:48:25;;;;;;;31.90;28.35;;;7.00;99.90;;;;;;5351641;26;20051;-74
2024/04/17 08:50:55;;;;;;;29.58;26.73;;;7.00;99.90;;;;;;5351662;26;20109;-74
2024/04/17 08:53:24;;;;;;;32.60;29.30;;;6.90;99.90;;;;;;5352574;26;20008;-75
2024/04/17 08:55:52;;;;;;;35.67;27.77;;;7.00;99.90;;;;;;5359389;26;20007;-75
2024/04/17 08:58:19;;;;;;;31.80;28.95;;;7.20;99.90;;;;;;5379421;26;20055;-74
2024/04/17 09:00:50;;;;;;;29.92;27.27;;;7.20;99.90;;;;;;5387915;26;20506;-74
2024/04/17 09:03:22;;;;;;;31.27;28.17;;;7.40;99.90;;;;;;5359544;26;20612;-74
2024/04/17 09:05:53;;;;;;;30.63;27.67;;;7.50;99.90;;;;;;5381157;26;20004;-72
2024/04/17 09:08:24;;;;;;;31.70;28.40;;;7.60;99.90;;;;;;5392149;26;19998;-74
2024/04/17 09:10:54;;;;;;;30.80;27.58;;;7.50;99.90;;;;;;5387506;26;20031;-73
2024/04/17 09:13:22;;;;;;;32.67;29.40;;;7.50;99.90;;;;;;5390475;26;20014;-73
2024/04/17 09:15:49;;;;;;;29.42;26.65;;;7.60;99.90;;;;;;5378431;26;20020;-75
2024/04/17 09:18:28;;;;;;;32.67;29.45;;;7.60;99.90;;;;;;5358029;26;20674;-75
2024/04/17 09:20:55;;;;;;;31.17;28.20;;;7.60;99.90;;;;;;5348181;26;20106;-74
2024/04/17 09:23:23;;;;;;;32.65;29.45;;;7.90;99.90;;;;;;5391045;26;20912;-74
2024/04/17 09:25:51;;;;;;;31.10;28.27;;;8.10;99.90;;;;;;5391232;26;20427;-75
2024/04/17 09:28:18;;;;;;;30.40;25.33;;;8.00;99.90;;;;;;5382692;26;20061;-76
2024/04/17 09:30:48;;;;;;;35.45;32.47;;;8.00;99.90;;;;;;5387923;26;19999;-74
2024/04/17 09:33:17;;;;;;;33.25;30.42;;;8.10;99.90;;;;;;5337339;26;20015;-76
2024/04/17 09:35:44;;;;;;;35.13;32.28;;;8.30;99.90;;;;;;5333589;26;20733;-74
2024/04/17 09:38:15;;;;;;;32.67;29.90;;;8.30;99.90;;;;;;5356425;26;20036;-76
2024/04/17 09:40:46;;;;;;;32.65;29.80;;;8.50;99.90;;;;;;5381010;26;20022;-75
2024/04/17 09:43:24;;;;;;;34.28;30.60;;;8.60;99.90;;;;;;5373313;26;20006;-76
2024/04/17 09:46:06;;;;;;;34.95;31.70;;;8.70;99.90;;;;;;5400674;26;20556;-74
2024/04/17 09:48:41;;;;;;;34.78;31.95;;;8.80;99.90;;;;;;5385283;26;19996;-76
2024/04/17 09:51:10;;;;;;;38.33;35.37;;;8.80;99.90;;;;;;5378923;26;20003;-75
2024/04/17 09:53:45;;;;;;;37.03;34.33;;;8.80;99.90;;;;;;5378714;26;20015;-77
2024/04/17 09:56:14;;;;;;;36.80;34.05;;;8.80;99.90;;;;;;5379624;26;20100;-74
2024/04/17 09:58:46;;;;;;;34.60;31.85;;;8.70;99.90;;;;;;5368487;26;20013;-75
2024/04/17 10:01:30;;;;;;;31.92;29.48;;;8.20;99.90;;;;;;5380045;26;20090;-75
2024/04/17 10:03:59;;;;;;;32.63;30.13;;;7.90;99.90;;;;;;5353633;26;20068;-74
2024/04/17 10:06:29;;;;;;;32.75;30.00;;;7.70;99.90;;;;;;5375362;26;20653;-74
2024/04/17 10:09:14;;;;;;;31.02;28.48;;;7.50;99.90;;;;;;5354580;26;20444;-73
2024/04/17 10:11:42;;;;;;;28.25;26.20;;;7.50;99.90;;;;;;5360140;26;20048;-74
2024/04/17 10:14:13;;;;;;;28.67;26.33;;;7.40;99.90;;;;;;5342676;26;20008;-75
2024/04/17 10:16:40;;;;;;;26.42;24.58;;;7.20;99.90;;;;;;5367866;26;20008;-75
2024/04/17 10:19:12;;;;;;;27.13;25.02;;;7.20;99.90;;;;;;5366622;26;20563;-75
2024/04/17 10:21:41;;;;;;;27.80;25.92;;;7.10;99.90;;;;;;5382389;26;20010;-75
2024/04/17 10:24:10;;;;;;;27.20;25.27;;;7.20;99.90;;;;;;5370722;26;20084;-73
2024/04/17 10:26:45;;;;;;;32.00;29.50;;;7.40;99.90;;;;;;5366274;26;20014;-73
2024/04/17 10:29:23;;;;;;;30.92;28.75;;;7.40;99.90;;;;;;5355065;26;20122;-74
2024/04/17 10:32:09;;;;;;;27.20;25.10;;;7.80;99.90;;;;;;5373416;26;20098;-75
2024/04/17 10:34:51;;;;;;;27.88;25.88;;;7.90;99.90;;;;;;5384427;26;20014;-74
2024/04/17 10:37:22;;;;;;;28.75;26.40;;;7.80;99.90;;;;;;5369051;26;20456;-74
2024/04/17 10:39:50;;;;;;;30.30;28.05;;;7.50;99.90;;;;;;5381859;26;20051;-74
2024/04/17 10:42:18;;;;;;;27.50;25.60;;;7.40;99.90;;;;;;5374010;26;20130;-73
2024/04/17 10:44:49;;;;;;;22.35;20.60;;;6.90;99.90;;;;;;5385319;26;20125;-74
2024/04/17 10:47:26;;;;;;;22.95;21.35;;;6.60;99.90;;;;;;5380858;26;20080;-74
2024/04/17 10:49:59;;;;;;;20.33;19.13;;;6.30;99.90;;;;;;5369553;26;20062;-75
2024/04/17 10:52:31;;;;;;;19.77;18.67;;;6.30;99.90;;;;;;5371926;26;20256;-74
2024/04/17 10:55:00;;;;;;;19.70;18.55;;;6.40;99.90;;;;;;5360390;26;20007;-79
2024/04/17 10:57:29;;;;;;;24.85;23.33;;;6.60;99.90;;;;;;5378098;26;22306;-72
2024/04/17 10:59:58;;;;;;;22.73;21.33;;;6.40;99.90;;;;;;5377397;26;20187;-73
2024/04/17 11:02:28;;;;;;;22.27;20.88;;;6.50;99.90;;;;;;5378644;26;20585;-73
2024/04/17 11:04:55;;;;;;;23.75;22.05;;;6.80;99.90;;;;;;5380924;26;20003;-74
2024/04/17 11:07:26;;;;;;;23.70;22.10;;;6.90;99.90;;;;;;5374568;26;20015;-72
2024/04/17 11:09:53;;;;;;;25.15;23.27;;;7.10;99.90;;;;;;5379566;26;20031;-74
2024/04/17 11:12:20;;;;;;;25.45;23.40;;;7.10;99.90;;;;;;5371728;26;20136;-73
2024/04/17 11:14:58;;;;;;;26.30;24.48;;;7.20;99.90;;;;;;5386338;26;20018;-74
2024/04/17 11:17:26;;;;;;;25.38;23.65;;;7.40;99.90;;;;;;5374422;26;20004;-75
2024/04/17 11:19:54;;;;;;;24.25;22.52;;;7.60;99.90;;;;;;5406331;26;20077;-73
2024/04/17 11:22:23;;;;;;;22.45;21.05;;;7.50;99.90;;;;;;5373232;26;20010;-74
2024/04/17 11:24:57;;;;;;;23.05;21.50;;;7.30;99.90;;;;;;5391821;26;20000;-73
2024/04/17 11:27:25;;;;;;;21.33;19.77;;;7.20;99.90;;;;;;5367807;26;20011;-74
2024/04/17 11:29:52;;;;;;;23.13;21.42;;;7.10;99.90;;;;;;5372561;26;19999;-72
2024/04/17 11:32:19;;;;;;;23.27;21.45;;;7.00;99.90;;;;;;5362508;26;21272;-74
2024/04/17 11:34:46;;;;;;;23.23;21.77;;;6.60;99.90;;;;;;5380848;26;19999;-73
2024/04/17 11:37:14;;;;;;;22.20;20.42;;;6.60;99.90;;;;;;5344813;26;20008;-76
2024/04/17 11:39:41;;;;;;;22.92;21.23;;;6.60;99.90;;;;;;5379022;26;20053;-75
2024/04/17 11:42:15;;;;;;;21.55;20.10;;;6.70;99.90;;;;;;5361503;26;20025;-73
2024/04/17 11:44:43;;;;;;;22.13;20.38;;;6.80;99.90;;;;;;5374409;26;20011;-76
2024/04/17 11:47:15;;;;;;;20.00;18.27;;;6.80;99.90;;;;;;5376260;26;20004;-75
2024/04/17 11:49:43;;;;;;;20.90;19.27;;;6.90;99.90;;;;;;5344506;26;20089;-76
2024/04/17 11:52:12;;;;;;;21.38;19.95;;;7.00;99.90;;;;;;5369634;26;20007;-75
2024/04/17 11:54:40;;;;;;;22.25;20.50;;;6.80;99.90;;;;;;5353332;26;20017;-76
2024/04/17 11:57:10;;;;;;;21.27;19.63;;;6.60;99.90;;;;;;5347037;26;20070;-75
2024/04/17 11:59:43;;;;;;;21.20;19.60;;;6.60;99.90;;;;;;5353756;26;20008;-76
2024/04/17 12:02:10;;;;;;;21.13;19.70;;;6.70;99.90;;;;;;5380504;26;20825;-75
2024/04/17 12:04:38;;;;;;;21.42;20.20;;;6.90;99.90;;;;;;5386556;26;20018;-76
2024/04/17 12:07:05;;;;;;;19.85;18.65;;;6.80;99.90;;;;;;5373646;26;20809;-76
2024/04/17 12:09:33;;;;;;;18.58;17.50;;;7.00;99.90;;;;;;5379388;26;20077;-76
2024/04/17 12:12:02;;;;;;;17.30;15.93;;;7.00;99.90;;;;;;5378541;26;20070;-76
2024/04/17 12:14:29;;;;;;;18.58;17.30;;;7.20;99.90;;;;;;5320346;26;21603;-76
2024/04/17 12:16:56;;;;;;;20.27;19.02;;;7.10;99.90;;;;;;5378171;26;20470;-76
2024/04/17 12:19:25;;;;;;;19.35;18.05;;;6.90;99.90;;;;;;5373695;26;20882;-76
2024/04/17 12:21:52;;;;;;;21.02;19.73;;;6.80;99.90;;;;;;5342066;26;20107;-76
2024/04/17 12:24:27;;;;;;;19.15;18.15;;;6.80;99.90;;;;;;5373300;26;20023;-76
2024/04/17 12:26:54;;;;;;;23.50;22.33;;;6.90;99.90;;;;;;5375297;26;20000;-77
2024/04/17 12:29:21;;;;;;;24.25;23.00;;;6.90;99.90;;;;;;5363625;26;20019;-75
2024/04/17 12:31:49;;;;;;;20.38;19.27;;;7.00;99.90;;;;;;5378443;26;20011;-76
2024/04/17 12:34:16;;;;;;;18.73;17.33;;;7.40;99.90;;;;;;5357592;26;20036;-79
2024/04/17 12:36:46;;;;;;;19.77;18.58;;;7.70;99.90;;;;;;5445103;26;20018;-77
2024/04/17 12:39:13;;;;;;;24.10;22.67;;;7.90;99.90;;;;;;5356165;26;20077;-77
2024/04/17 12:41:40;;;;;;;23.63;22.30;;;7.70;99.90;;;;;;5438007;26;20225;-76